Time;durP1;ratioP1;P1;durP2;ratioP2;P2;SDS_P1;SDS_P2;PMS_P1;PMS_P2;Temp;Humidity;BMP_temperature;BMP_pressure;BME280_temperature;BME280_humidity;BME280_pressure;Samples;Min_cycle;Max_cycle;Signal;HPM_P1;HPM_P2
2022/04/11 00:01:11;;;;;;;11.27;6.27;;;;;;;3.44;84.79;97075.41;5033613;28;20698;-62
2022/04/11 00:03:37;;;;;;;10.10;6.87;;;;;;;3.51;83.17;97076.31;5033094;28;20198;-62
2022/04/11 00:06:02;;;;;;;7.03;5.60;;;;;;;3.42;83.26;97069.56;5033599;28;20183;-62
2022/04/11 00:08:27;;;;;;;6.53;5.93;;;;;;;3.47;83.25;97069.84;5033223;28;20192;-62
2022/04/11 00:10:53;;;;;;;7.83;5.93;;;;;;;3.39;84.40;97070.75;5033359;28;20193;-62
2022/04/11 00:13:18;;;;;;;7.43;5.80;;;;;;;3.37;84.58;97067.50;5033215;28;20545;-62
2022/04/11 00:15:44;;;;;;;8.23;5.83;;;;;;;3.32;84.39;97067.25;5032994;28;20186;-62
2022/04/11 00:18:09;;;;;;;6.57;5.83;;;;;;;3.39;84.84;97068.16;5033495;28;20265;-63
2022/04/11 00:20:35;;;;;;;10.70;6.53;;;;;;;3.39;84.94;97065.56;5033155;28;20289;-63
2022/04/11 00:23:04;;;;;;;8.20;6.83;;;;;;;3.53;84.13;97061.38;5033166;28;20183;-63
2022/04/11 00:25:29;;;;;;;9.20;6.50;;;;;;;3.38;85.04;97078.69;5032975;28;20289;-62
2022/04/11 00:27:55;;;;;;;8.60;6.20;;;;;;;3.44;84.96;97070.22;5033268;28;20608;-62
2022/04/11 00:30:20;;;;;;;7.33;6.37;;;;;;;3.46;84.77;97066.47;5033080;28;20252;-63
2022/04/11 00:32:46;;;;;;;6.70;6.03;;;;;;;3.28;85.46;97065.97;5032992;28;20285;-62
2022/04/11 00:35:12;;;;;;;7.50;6.40;;;;;;;3.17;86.58;97071.56;5032444;28;20183;-63
2022/04/11 00:37:37;;;;;;;10.03;6.87;;;;;;;3.30;86.21;97070.00;5033262;28;20218;-63
2022/04/11 00:40:08;;;;;;;9.77;7.40;;;;;;;3.14;86.71;97067.53;5033085;28;20249;-62
2022/04/11 00:42:34;;;;;;;7.73;6.90;;;;;;;3.13;86.10;97060.72;5015372;28;20178;-62
2022/04/11 00:45:00;;;;;;;7.63;6.83;;;;;;;3.07;87.08;97058.03;5015009;28;20284;-62
2022/04/11 00:47:26;;;;;;;11.10;7.17;;;;;;;2.90;87.18;97052.97;5033092;28;20225;-62
2022/04/11 00:49:59;;;;;;;8.77;6.57;;;;;;;2.88;87.74;97052.34;5032568;28;20179;-62
2022/04/11 00:52:25;;;;;;;9.53;7.10;;;;;;;2.93;88.06;97044.06;5033009;28;20237;-62
2022/04/11 00:54:51;;;;;;;8.00;7.17;;;;;;;2.95;88.53;97049.06;5032749;28;20187;-62
2022/04/11 00:57:16;;;;;;;7.77;6.80;;;;;;;2.95;87.20;97041.31;5015044;28;20190;-63
2022/04/11 00:59:42;;;;;;;9.17;6.77;;;;;;;2.94;88.29;97037.91;5032687;28;20199;-62
2022/04/11 01:02:08;;;;;;;8.20;7.17;;;;;;;3.07;87.45;97037.31;5032385;28;20778;-62
2022/04/11 01:04:34;;;;;;;8.70;7.20;;;;;;;3.09;87.34;97038.75;5032228;28;20267;-61
2022/04/11 01:06:59;;;;;;;9.40;7.63;;;;;;;3.11;87.15;97034.22;5032571;28;20182;-62
2022/04/11 01:09:26;;;;;;;10.43;7.80;;;;;;;3.14;85.96;97033.06;5032604;28;20201;-62
2022/04/11 01:11:52;;;;;;;8.33;7.50;;;;;;;3.08;86.59;97031.97;5032665;28;20194;-62
2022/04/11 01:14:19;;;;;;;9.30;7.30;;;;;;;3.13;86.43;97041.78;5015010;28;20560;-62
2022/04/11 01:16:51;;;;;;;14.60;7.53;;;;;;;3.16;86.21;97041.47;5032504;28;20202;-62
2022/04/11 01:19:18;;;;;;;8.63;7.77;;;;;;;3.00;86.80;97039.00;5031796;28;20202;-63
2022/04/11 01:21:45;;;;;;;8.33;7.43;;;;;;;3.00;87.49;97032.03;5032256;28;20560;-63
2022/04/11 01:24:11;;;;;;;8.73;7.83;;;;;;;2.99;87.63;97039.97;5032201;28;20201;-62
2022/04/11 01:26:37;;;;;;;11.37;7.63;;;;;;;2.90;87.64;97040.00;5015018;28;20186;-62
2022/04/11 01:29:04;;;;;;;10.30;7.67;;;;;;;2.94;87.45;97040.50;5032423;28;20195;-62
2022/04/11 01:31:30;;;;;;;8.43;7.63;;;;;;;2.83;87.88;97041.69;5031977;28;20218;-63
2022/04/11 01:33:55;;;;;;;9.97;7.90;;;;;;;2.96;87.28;97035.13;5032096;28;20244;-63
2022/04/11 01:36:21;;;;;;;8.07;7.27;;;;;;;2.98;87.89;97033.19;5031998;28;20187;-64
2022/04/11 01:38:46;;;;;;;7.27;6.67;;;;;;;3.00;87.26;97031.22;5032027;28;20194;-63
2022/04/11 01:41:12;;;;;;;9.53;7.50;;;;;;;2.95;87.65;97036.94;5032535;28;20186;-62
2022/04/11 01:43:37;;;;;;;9.27;7.70;;;;;;;3.03;87.52;97030.88;5031812;28;20210;-62
2022/04/11 01:46:02;;;;;;;8.47;7.33;;;;;;;2.89;88.19;97032.44;5014961;28;20197;-62
2022/04/11 01:48:28;;;;;;;9.17;7.90;;;;;;;2.99;87.15;97027.03;5032554;28;20195;-62
2022/04/11 01:50:53;;;;;;;12.50;7.30;;;;;;;2.97;87.49;97029.78;5032236;28;20182;-63
2022/04/11 01:53:20;;;;;;;9.67;7.50;;;;;;;2.93;86.99;97021.56;5014436;28;20271;-62
2022/04/11 01:55:46;;;;;;;7.83;7.00;;;;;;;2.89;86.69;97014.31;5032215;28;20183;-63
2022/04/11 01:58:12;;;;;;;7.30;6.60;;;;;;;2.88;86.46;97020.47;5032059;28;20190;-62
2022/04/11 02:00:38;;;;;;;6.77;5.80;;;;;;;2.98;87.01;97018.44;5031603;28;20186;-63
2022/04/11 02:03:06;;;;;;;10.63;7.13;;;;;;;2.99;85.95;97019.25;5034763;28;20179;-62
2022/04/11 02:05:32;;;;;;;8.23;6.30;;;;;;;3.02;86.20;97018.91;5017883;28;20182;-62
2022/04/11 02:07:58;;;;;;;8.40;6.63;;;;;;;3.01;85.86;97012.91;5035585;28;20190;-63
2022/04/11 02:10:24;;;;;;;10.10;6.30;;;;;;;3.11;85.08;97013.50;5035896;28;20489;-62
2022/04/11 02:12:50;;;;;;;8.90;6.33;;;;;;;3.09;85.60;97014.66;5035890;28;20256;-62
2022/04/11 02:15:17;;;;;;;8.80;5.63;;;;;;;3.19;86.05;97004.84;5035797;28;20178;-62
2022/04/11 02:17:43;;;;;;;7.20;6.37;;;;;;;3.16;85.10;97003.44;5035288;28;20185;-62
2022/04/11 02:20:11;;;;;;;6.50;5.83;;;;;;;3.06;86.16;96997.69;5035371;28;20265;-62
2022/04/11 02:22:47;;;;;;;10.47;6.90;;;;;;;3.08;86.02;96993.13;5035737;28;20277;-62
2022/04/11 02:25:13;;;;;;;6.47;5.87;;;;;;;3.23;85.49;96988.78;5017753;28;20767;-62
2022/04/11 02:27:38;;;;;;;8.23;7.03;;;;;;;3.40;84.25;96986.06;5035539;28;20273;-61
2022/04/11 02:30:05;;;;;;;9.73;6.27;;;;;;;3.12;85.05;96980.66;5035219;28;20228;-62
2022/04/11 02:32:31;;;;;;;8.50;6.33;;;;;;;3.27;84.54;96987.47;5017355;28;20636;-62
2022/04/11 02:34:56;;;;;;;7.07;6.37;;;;;;;3.32;84.23;96979.16;5034313;28;20187;-63
2022/04/11 02:37:21;;;;;;;6.87;6.00;;;;;;;3.36;84.08;96980.41;5035135;28;20187;-62
2022/04/11 02:39:47;;;;;;;7.30;5.73;;;;;;;3.32;83.44;96969.63;5035250;28;20664;-63
2022/04/11 02:42:21;;;;;;;8.00;6.97;;;;;;;3.28;84.24;96967.56;5035024;28;20171;-62
2022/04/11 02:44:46;;;;;;;6.43;5.70;;;;;;;3.40;82.86;96965.34;5035335;28;20181;-63
2022/04/11 02:47:12;;;;;;;9.37;6.00;;;;;;;3.45;82.18;96961.25;5017425;28;20190;-63
2022/04/11 02:49:37;;;;;;;7.23;5.67;;;;;;;3.60;81.69;96961.25;5035270;28;20201;-62
2022/04/11 02:52:03;;;;;;;9.30;6.03;;;;;;;3.39;82.60;96954.16;5034898;28;20193;-62
2022/04/11 02:54:28;;;;;;;7.20;6.20;;;;;;;3.38;82.91;96954.34;5035377;28;20193;-62
2022/04/11 02:56:53;;;;;;;6.23;5.63;;;;;;;3.48;82.77;96944.53;4997354;28;20646;-62
2022/04/11 02:59:19;;;;;;;6.80;6.00;;;;;;;3.46;82.44;96944.69;5030217;28;20253;-62
2022/04/11 03:01:44;;;;;;;8.23;5.70;;;;;;;3.44;81.91;96941.50;5016701;28;20242;-62
2022/04/11 03:04:10;;;;;;;7.67;5.33;;;;;;;3.55;81.43;96940.25;5034301;28;20182;-62
2022/04/11 03:06:35;;;;;;;7.63;6.20;;;;;;;3.43;82.49;96939.06;5034554;28;20633;-62
2022/04/11 03:09:00;;;;;;;6.27;5.67;;;;;;;3.54;82.02;96936.03;5034584;28;20183;-62
2022/04/11 03:11:26;;;;;;;6.10;5.47;;;;;;;3.75;80.78;96943.88;5034781;28;20189;-62
2022/04/11 03:13:51;;;;;;;6.93;4.97;;;;;;;3.66;80.54;96929.44;5034356;28;20198;-63
2022/04/11 03:16:16;;;;;;;7.13;5.30;;;;;;;3.71;80.09;96924.50;5034678;28;20182;-62
2022/04/11 03:18:42;;;;;;;7.37;5.97;;;;;;;3.65;80.08;96914.84;5016275;28;20595;-63
2022/04/11 03:21:07;;;;;;;8.13;5.43;;;;;;;3.74;79.77;96916.34;5034398;28;20186;-62
2022/04/11 03:23:32;;;;;;;5.23;4.73;;;;;;;3.72;79.37;96915.75;5016743;28;20258;-62
2022/04/11 03:25:58;;;;;;;9.93;5.17;;;;;;;3.69;79.31;96911.72;5034299;28;20551;-62
2022/04/11 03:28:23;;;;;;;10.20;5.97;;;;;;;3.67;79.10;96910.31;5034098;28;20182;-62
2022/04/11 03:30:48;;;;;;;5.87;5.27;;;;;;;3.63;79.29;96912.44;5034313;28;20194;-65
2022/04/11 03:33:14;;;;;;;6.87;5.23;;;;;;;3.72;78.69;96907.97;5033703;28;20241;-62
2022/04/11 03:35:39;;;;;;;6.47;5.40;;;;;;;3.79;79.02;96908.06;5016203;28;20191;-62
2022/04/11 03:38:04;;;;;;;5.70;5.20;;;;;;;3.78;78.82;96915.03;5033991;28;20225;-62
2022/04/11 03:40:30;;;;;;;6.37;5.57;;;;;;;3.68;78.97;96911.88;5033923;28;20270;-63
2022/04/11 03:42:55;;;;;;;8.27;5.93;;;;;;;3.64;79.14;96910.66;5034114;28;20217;-62
2022/04/11 03:45:21;;;;;;;6.50;5.70;;;;;;;3.71;78.33;96914.13;5033939;28;20245;-62
2022/04/11 03:47:47;;;;;;;8.40;5.50;;;;;;;3.77;78.35;96910.81;5016222;28;20183;-63
2022/04/11 03:50:12;;;;;;;8.23;5.60;;;;;;;3.88;77.75;96914.75;5033920;28;20182;-64
2022/04/11 03:52:38;;;;;;;7.00;5.70;;;;;;;3.97;77.60;96905.88;5034083;28;20206;-62
2022/04/11 03:55:04;;;;;;;8.40;5.30;;;;;;;3.96;77.33;96899.06;5033464;28;20218;-62
2022/04/11 03:57:30;;;;;;;7.97;5.40;;;;;;;3.87;77.78;96911.34;5033202;28;20185;-62
2022/04/11 03:59:55;;;;;;;6.83;5.70;;;;;;;3.94;77.41;96907.06;5015533;28;20194;-62
2022/04/11 04:02:21;;;;;;;8.17;5.10;;;;;;;3.86;77.64;96909.72;5033909;28;20237;-63
2022/04/11 04:04:46;;;;;;;9.37;5.17;;;;;;;3.79;78.48;96905.47;5033099;28;20657;-63
2022/04/11 04:07:12;;;;;;;4.93;4.43;;;;;;;3.90;77.28;96899.81;5033338;28;20174;-61
2022/04/11 04:09:38;;;;;;;7.40;5.43;;;;;;;4.00;77.20;96900.34;5033659;28;20178;-62
2022/04/11 04:12:04;;;;;;;7.40;5.23;;;;;;;4.00;77.08;96910.72;5033285;28;20198;-62
2022/04/11 04:14:30;;;;;;;6.97;5.67;;;;;;;3.86;77.92;96911.53;5033780;28;20191;-62
2022/04/11 04:16:56;;;;;;;6.67;5.53;;;;;;;3.90;77.18;96899.81;5032686;28;20214;-66
2022/04/11 04:19:21;;;;;;;8.07;5.57;;;;;;;4.00;76.67;96895.97;5033064;28;20283;-62
2022/04/11 04:21:46;;;;;;;6.37;4.60;;;;;;;3.78;77.66;96899.47;5033531;28;20191;-62
2022/04/11 04:24:13;;;;;;;6.63;5.47;;;;;;;3.80;78.15;96889.72;5032967;28;20281;-62
2022/04/11 04:26:38;;;;;;;7.73;5.60;;;;;;;3.85;78.29;96891.75;5032826;28;20629;-62
2022/04/11 04:29:04;;;;;;;5.83;5.13;;;;;;;3.75;78.52;96894.63;5032775;28;20198;-62
2022/04/11 04:31:30;;;;;;;7.83;5.90;;;;;;;3.74;78.58;96887.84;5014682;28;20174;-63
2022/04/11 04:33:55;;;;;;;6.00;5.40;;;;;;;3.76;77.73;96885.88;5032888;28;20191;-63
2022/04/11 04:36:20;;;;;;;5.43;4.90;;;;;;;3.73;78.61;96871.50;5032990;28;20537;-62
2022/04/11 04:38:46;;;;;;;6.07;5.03;;;;;;;3.72;77.84;96874.28;5032546;28;20612;-63
2022/04/11 04:41:11;;;;;;;7.17;4.93;;;;;;;3.84;77.27;96879.81;5033285;28;20193;-62
2022/04/11 04:43:37;;;;;;;7.37;5.83;;;;;;;3.86;77.33;96870.84;5033232;28;20186;-63
2022/04/11 04:46:02;;;;;;;6.00;4.40;;;;;;;3.65;78.04;96879.38;5032699;28;20193;-63
2022/04/11 04:48:28;;;;;;;10.50;6.07;;;;;;;3.76;77.74;96871.13;5033016;28;20197;-63
2022/04/11 04:50:54;;;;;;;8.13;5.43;;;;;;;3.68;78.66;96870.41;5032661;28;20672;-62
2022/04/11 04:53:19;;;;;;;8.07;5.63;;;;;;;3.57;79.06;96878.66;5032624;28;20182;-63
2022/04/11 04:55:44;;;;;;;7.03;5.60;;;;;;;3.68;78.38;96883.38;5032612;28;20179;-62
2022/04/11 04:58:10;;;;;;;7.20;5.90;;;;;;;3.71;78.53;96880.44;5014859;28;20539;-63
2022/04/11 05:00:35;;;;;;;7.97;5.90;;;;;;;3.72;78.27;96879.47;5032370;28;20193;-62
2022/04/11 05:03:01;;;;;;;9.87;5.80;;;;;;;3.70;78.80;96890.00;5032183;28;20647;-63
2022/04/11 05:05:26;;;;;;;7.80;5.63;;;;;;;3.59;78.89;96893.06;5032463;28;20197;-63
2022/04/11 05:07:51;;;;;;;7.43;5.63;;;;;;;3.80;78.45;96889.72;5032728;28;20328;-63
2022/04/11 05:10:17;;;;;;;7.77;5.97;;;;;;;3.79;78.24;96888.09;5032179;28;20197;-63
2022/04/11 05:12:44;;;;;;;6.53;5.00;;;;;;;3.91;77.84;96885.84;5032403;28;20675;-62
2022/04/11 05:15:10;;;;;;;9.93;5.70;;;;;;;4.00;77.50;96890.75;5032426;28;20558;-62
2022/04/11 05:17:35;;;;;;;8.00;5.90;;;;;;;3.95;77.79;96884.53;5032836;28;20182;-63
2022/04/11 05:20:03;;;;;;;14.20;6.47;;;;;;;4.00;76.76;96887.38;5032662;28;20576;-63
2022/04/11 05:22:28;;;;;;;9.77;6.30;;;;;;;3.94;76.90;96881.13;5032422;28;20194;-63
2022/04/11 05:24:53;;;;;;;6.80;5.70;;;;;;;3.98;77.31;96884.94;5032140;28;20186;-63
2022/04/11 05:27:19;;;;;;;6.80;5.87;;;;;;;3.97;77.72;96887.72;5032377;28;20244;-62
2022/04/11 05:29:44;;;;;;;8.03;6.00;;;;;;;4.09;77.41;96887.06;5032423;28;20195;-62
2022/04/11 05:32:09;;;;;;;9.10;6.27;;;;;;;4.30;76.23;96891.47;5032746;28;20233;-62
2022/04/11 05:34:35;;;;;;;8.27;6.57;;;;;;;4.26;76.17;96889.44;5031632;28;20197;-65
2022/04/11 05:37:00;;;;;;;8.27;5.83;;;;;;;4.68;75.33;96884.22;5015530;28;20195;-62
2022/04/11 05:39:26;;;;;;;8.17;5.97;;;;;;;5.08;73.68;96887.13;5035815;28;20213;-62
2022/04/11 05:41:51;;;;;;;7.43;5.43;;;;;;;5.24;72.56;96879.84;5036508;28;20179;-62
2022/04/11 05:44:16;;;;;;;8.40;5.87;;;;;;;5.54;71.86;96884.81;5036320;28;20182;-62
2022/04/11 05:46:42;;;;;;;6.47;5.70;;;;;;;5.42;71.31;96892.34;5036406;28;20248;-62
2022/04/11 05:49:07;;;;;;;6.30;5.70;;;;;;;5.70;70.15;96887.91;5036058;28;20190;-62
2022/04/11 05:51:32;;;;;;;6.30;5.63;;;;;;;5.84;69.79;96873.97;5035439;28;20336;-63
2022/04/11 05:53:58;;;;;;;6.27;5.23;;;;;;;5.86;69.61;96871.97;5035831;28;20675;-62
2022/04/11 05:56:23;;;;;;;8.47;5.70;;;;;;;6.02;68.17;96878.66;5035845;28;20179;-62
2022/04/11 05:58:49;;;;;;;5.87;5.27;;;;;;;6.12;68.18;96868.69;5018247;28;20356;-60
2022/04/11 06:01:14;;;;;;;5.37;4.87;;;;;;;6.29;67.24;96876.94;5035760;28;20665;-62
2022/04/11 06:03:39;;;;;;;7.40;4.73;;;;;;;6.31;67.39;96879.31;5035451;28;20249;-62
2022/04/11 06:06:05;;;;;;;8.17;5.00;;;;;;;6.58;66.88;96876.56;5035367;28;20190;-63
2022/04/11 06:08:31;;;;;;;6.03;5.43;;;;;;;6.46;66.45;96879.97;5035875;28;20179;-60
2022/04/11 06:10:56;;;;;;;6.23;4.97;;;;;;;6.76;65.77;96885.59;5036078;28;20186;-60
2022/04/11 06:13:22;;;;;;;8.33;5.60;;;;;;;6.41;67.07;96885.75;5035751;28;20551;-61
2022/04/11 06:15:47;;;;;;;5.27;4.77;;;;;;;6.56;66.22;96875.19;5036026;28;20186;-60
2022/04/11 06:18:12;;;;;;;5.90;5.10;;;;;;;6.71;65.99;96877.59;5034902;28;20179;-60
2022/04/11 06:20:38;;;;;;;6.87;4.50;;;;;;;6.80;65.75;96879.00;5017691;28;20194;-60
2022/04/11 06:23:03;;;;;;;6.67;4.90;;;;;;;6.93;65.07;96881.59;5035293;28;20258;-61
2022/04/11 06:25:29;;;;;;;6.00;4.67;;;;;;;6.81;65.62;96883.19;5017013;28;20194;-60
2022/04/11 06:27:54;;;;;;;6.63;4.63;;;;;;;7.21;64.50;96886.59;5035409;28;20592;-61
2022/04/11 06:30:19;;;;;;;5.30;4.80;;;;;;;7.22;63.20;96886.41;5017685;28;20240;-61
2022/04/11 06:32:45;;;;;;;5.53;4.70;;;;;;;7.36;63.47;96887.16;5035165;28;20197;-60
2022/04/11 06:35:10;;;;;;;5.77;5.13;;;;;;;7.23;63.72;96892.41;5034090;28;20289;-61
2022/04/11 06:37:36;;;;;;;6.33;4.83;;;;;;;7.43;63.05;96887.94;5034379;28;20261;-61
2022/04/11 06:40:02;;;;;;;6.40;4.90;;;;;;;7.33;63.13;96891.00;5035112;28;20202;-63
2022/04/11 06:42:28;;;;;;;6.47;4.60;;;;;;;7.48;62.53;96878.50;5034430;28;20183;-62
2022/04/11 06:44:54;;;;;;;5.80;4.73;;;;;;;7.78;62.70;96885.84;5034636;28;20193;-62
2022/04/11 06:47:21;;;;;;;5.23;4.27;;;;;;;7.77;62.16;96879.84;5034223;28;20187;-61
2022/04/11 06:49:47;;;;;;;9.53;4.60;;;;;;;7.98;60.70;96876.13;5017407;28;20186;-61
2022/04/11 06:52:13;;;;;;;5.40;4.60;;;;;;;7.91;60.61;96876.16;5034812;28;20186;-61
2022/04/11 06:54:39;;;;;;;5.63;4.40;;;;;;;7.71;61.31;96874.63;5016377;28;20192;-61
2022/04/11 06:57:04;;;;;;;7.57;4.83;;;;;;;7.94;61.52;96867.13;5034247;28;20202;-61
2022/04/11 06:59:30;;;;;;;5.73;4.57;;;;;;;7.78;61.44;96880.63;5034933;28;20539;-60
2022/04/11 07:01:55;;;;;;;4.90;3.60;;;;;;;8.31;66.31;96878.59;5034262;28;20214;-64
2022/04/11 07:04:21;;;;;;;5.77;4.70;;;;;;;9.35;58.65;96878.03;5016955;28;20187;-62
2022/04/11 07:06:47;;;;;;;5.67;4.17;;;;;;;8.87;58.77;96870.78;5034530;28;20205;-64
2022/04/11 07:09:13;;;;;;;4.97;3.90;;;;;;;8.76;58.46;96869.66;5034257;28;20274;-62
2022/04/11 07:11:38;;;;;;;7.37;4.23;;;;;;;8.52;58.73;96874.88;5016122;28;20285;-62
2022/04/11 07:14:04;;;;;;;5.03;4.13;;;;;;;8.47;59.28;96885.16;5034158;28;20179;-62
2022/04/11 07:16:29;;;;;;;6.27;4.43;;;;;;;8.33;58.78;96884.44;5016358;28;20725;-62
2022/04/11 07:18:55;;;;;;;6.03;4.10;;;;;;;8.37;59.00;96877.75;5016212;28;20198;-62
2022/04/11 07:21:20;;;;;;;5.27;3.93;;;;;;;8.37;58.27;96883.00;5033993;28;20650;-61
2022/04/11 07:23:46;;;;;;;5.90;4.40;;;;;;;8.37;58.66;96879.56;5034011;28;20201;-64
2022/04/11 07:26:11;;;;;;;5.00;4.50;;;;;;;8.41;58.03;96878.16;5033908;28;20189;-62
2022/04/11 07:28:37;;;;;;;5.67;4.53;;;;;;;8.83;58.09;96879.28;5033941;28;20195;-62
2022/04/11 07:31:02;;;;;;;4.50;4.10;;;;;;;8.84;57.20;96875.66;5033991;28;20182;-62
2022/04/11 07:33:28;;;;;;;6.47;4.17;;;;;;;8.74;56.81;96874.31;5033713;28;20201;-62
2022/04/11 07:35:53;;;;;;;5.07;3.83;;;;;;;9.14;56.07;96879.19;5033686;28;20616;-65
2022/04/11 07:38:19;;;;;;;5.67;4.03;;;;;;;9.15;56.19;96878.19;5033528;28;20183;-63
2022/04/11 07:40:44;;;;;;;4.33;3.93;;;;;;;8.70;55.94;96872.31;5033851;28;20187;-63
2022/04/11 07:43:10;;;;;;;6.67;4.20;;;;;;;8.67;57.05;96864.91;5033330;28;20280;-63
2022/04/11 07:45:35;;;;;;;4.57;3.93;;;;;;;9.17;56.17;96878.78;5032971;28;20179;-62
2022/04/11 07:48:00;;;;;;;7.93;4.17;;;;;;;9.28;55.70;96882.50;5033012;28;20182;-62
2022/04/11 07:50:26;;;;;;;6.77;3.90;;;;;;;9.25;55.33;96880.34;5034150;28;20261;-61
2022/04/11 07:52:51;;;;;;;6.23;4.37;;;;;;;9.46;55.81;96878.13;5033116;28;20270;-65
2022/04/11 07:55:17;;;;;;;5.50;3.83;;;;;;;9.12;55.26;96889.09;5033720;28;20189;-63
2022/04/11 07:57:42;;;;;;;4.13;3.60;;;;;;;9.25;55.25;96886.34;5033820;28;20182;-62
2022/04/11 08:00:09;;;;;;;4.70;3.37;;;;;;;9.69;54.91;96882.69;5031949;28;20203;-62
2022/04/11 08:02:34;;;;;;;4.33;3.57;;;;;;;9.86;54.30;96882.91;5033319;28;20222;-63
2022/04/11 08:05:02;;;;;;;6.03;3.77;;;;;;;9.97;53.49;96879.56;5033082;28;20540;-62
2022/04/11 08:07:27;;;;;;;3.77;3.33;;;;;;;10.20;52.62;96869.19;5032531;28;20192;-63
2022/04/11 08:09:52;;;;;;;4.27;3.70;;;;;;;9.60;51.90;96878.75;5033454;28;20183;-63
2022/04/11 08:12:18;;;;;;;4.00;3.60;;;;;;;9.41;53.92;96872.72;5033456;28;20274;-62
2022/04/11 08:14:44;;;;;;;5.83;3.77;;;;;;;9.33;53.53;96870.38;5033078;28;20629;-65
2022/04/11 08:17:09;;;;;;;5.67;3.30;;;;;;;9.57;53.80;96871.34;5032871;28;20184;-62
2022/04/11 08:19:34;;;;;;;3.60;3.30;;;;;;;9.49;53.70;96872.44;5032924;28;20310;-64
2022/04/11 08:22:00;;;;;;;4.03;3.20;;;;;;;9.94;52.78;96877.38;5033227;28;20604;-63
2022/04/11 08:24:25;;;;;;;4.03;3.67;;;;;;;9.68;52.28;96875.88;5032720;28;20229;-62
2022/04/11 08:26:50;;;;;;;5.00;3.83;;;;;;;9.64;52.94;96873.91;5015389;28;20259;-61
2022/04/11 08:29:19;;;;;;;3.57;3.27;;;;;;;10.03;52.76;96871.59;5032877;28;20222;-62
2022/04/11 08:31:45;;;;;;;15.10;3.70;;;;;;;9.83;52.47;96876.28;5032764;28;20237;-62
2022/04/11 08:34:10;;;;;;;5.80;3.33;;;;;;;9.94;50.50;96875.56;5033049;28;20263;-63
2022/04/11 08:36:36;;;;;;;5.63;3.43;;;;;;;9.80;52.53;96865.47;5032687;28;20262;-64
2022/04/11 08:39:02;;;;;;;4.00;3.30;;;;;;;10.38;50.77;96870.97;5028775;28;20203;-66
2022/04/11 08:41:36;;;;;;;4.90;3.17;;;;;;;10.49;50.81;96878.06;5032569;28;20214;-63
2022/04/11 08:44:06;;;;;;;4.40;3.20;;;;;;;10.62;50.52;96869.22;5030138;28;20167;-63
2022/04/11 08:46:33;;;;;;;5.47;3.30;;;;;;;10.57;50.87;96867.28;5032392;28;20234;-64
2022/04/11 08:49:00;;;;;;;6.00;3.60;;;;;;;9.96;52.05;96877.94;5031917;28;20787;-65
2022/04/11 08:51:26;;;;;;;5.03;3.63;;;;;;;10.17;51.99;96871.47;5031474;28;20632;-65
2022/04/11 08:53:52;;;;;;;3.30;2.83;;;;;;;10.14;52.44;96869.28;5032421;28;20224;-63
2022/04/11 08:56:17;;;;;;;4.67;3.43;;;;;;;10.67;51.45;96880.66;5032297;28;20553;-63
2022/04/11 08:58:43;;;;;;;3.70;3.33;;;;;;;11.07;50.47;96870.34;5031715;28;20203;-64
2022/04/11 09:01:08;;;;;;;2.87;2.60;;;;;;;11.43;49.33;96864.03;5030569;28;20258;-64
2022/04/11 09:03:34;;;;;;;2.50;2.30;;;;;;;11.63;46.61;96864.50;5032428;28;20186;-64
2022/04/11 09:06:08;;;;;;;2.37;2.17;;;;;;;12.03;46.32;96867.19;5032448;28;20194;-63
2022/04/11 09:08:42;;;;;;;3.87;2.57;;;;;;;11.77;47.68;96859.81;5031904;28;20239;-63
2022/04/11 09:11:08;;;;;;;3.00;2.63;;;;;;;11.51;48.11;96860.28;5031668;28;20189;-64
2022/04/11 09:13:51;;;;;;;2.83;2.43;;;;;;;11.09;46.29;96852.53;5038182;28;20647;-64
2022/04/11 09:16:17;;;;;;;2.63;2.30;;;;;;;11.41;46.47;96854.81;5039058;28;20172;-65
2022/04/11 09:18:48;;;;;;;3.53;2.50;;;;;;;11.31;46.20;96855.41;5038905;28;20293;-65
2022/04/11 09:21:13;;;;;;;3.10;2.40;;;;;;;11.35;46.37;96853.09;5033760;28;20660;-64
2022/04/11 09:23:39;;;;;;;3.60;2.30;;;;;;;11.49;45.61;96857.88;5021001;28;20226;-65
2022/04/11 09:26:23;;;;;;;2.80;2.60;;;;;;;10.65;44.98;96853.84;5039130;28;20274;-64
2022/04/11 09:29:02;;;;;;;3.13;2.30;;;;;;;10.92;45.39;96851.63;5038686;28;20189;-64
2022/04/11 09:31:28;;;;;;;2.50;2.30;;;;;;;11.22;46.77;96854.13;5038789;28;20190;-65
2022/04/11 09:33:54;;;;;;;4.70;2.10;;;;;;;11.59;45.62;96855.47;5020905;28;20194;-64
2022/04/11 09:36:20;;;;;;;2.43;2.23;;;;;;;11.92;43.97;96860.13;5038353;28;20182;-64
2022/04/11 09:38:58;;;;;;;3.27;2.20;;;;;;;12.03;44.23;96850.63;5038225;28;20213;-64
2022/04/11 09:41:29;;;;;;;2.27;2.03;;;;;;;12.00;43.44;96845.81;5038943;28;20233;-64
2022/04/11 09:43:55;;;;;;;2.17;2.00;;;;;;;12.15;43.79;96851.34;5038603;28;20668;-64
2022/04/11 09:46:21;;;;;;;4.40;2.17;;;;;;;12.24;43.64;96836.81;5038437;28;20187;-64
2022/04/11 09:48:46;;;;;;;2.30;2.10;;;;;;;12.37;44.03;96835.72;5037875;28;20198;-63
2022/04/11 09:51:13;;;;;;;3.63;2.27;;;;;;;12.21;43.10;96845.16;5038975;28;20186;-64
2022/04/11 09:53:39;;;;;;;2.43;2.00;;;;;;;11.83;41.29;96843.13;5038003;28;20186;-64
2022/04/11 09:56:06;;;;;;;2.50;2.30;;;;;;;11.13;42.43;96831.91;5038857;28;20663;-64
2022/04/11 09:58:37;;;;;;;3.27;1.80;;;;;;;11.40;44.07;96819.09;5038035;28;20260;-64
2022/04/11 10:01:04;;;;;;;3.87;1.93;;;;;;;11.81;42.49;96823.38;5038105;28;20245;-65
2022/04/11 10:03:30;;;;;;;3.43;2.10;;;;;;;11.51;42.58;96820.91;5038529;28;20195;-65
2022/04/11 10:05:56;;;;;;;2.23;2.03;;;;;;;11.56;43.11;96821.81;5038320;28;20188;-64
2022/04/11 10:08:25;;;;;;;3.27;2.30;;;;;;;11.86;42.66;96816.41;5020137;28;20178;-65
2022/04/11 10:10:51;;;;;;;2.33;2.10;;;;;;;11.71;40.40;96805.56;5038415;28;20273;-64
2022/04/11 10:13:17;;;;;;;1.80;1.70;;;;;;;12.03;42.48;96806.75;5037883;28;20265;-66
2022/04/11 10:15:46;;;;;;;2.00;1.90;;;;;;;12.61;42.22;96804.84;5037725;28;20593;-64
2022/04/11 10:18:14;;;;;;;2.57;1.80;;;;;;;12.54;39.67;96801.59;5037114;28;20266;-64
2022/04/11 10:20:43;;;;;;;2.70;1.80;;;;;;;12.75;41.03;96796.41;5028447;28;20207;-63
2022/04/11 10:23:28;;;;;;;3.07;1.80;;;;;;;12.82;40.23;96788.31;5020529;28;20190;-63
2022/04/11 10:25:56;;;;;;;2.63;2.00;;;;;;;12.15;40.03;96795.41;5035103;28;20179;-63
2022/04/11 10:28:24;;;;;;;9.10;2.10;;;;;;;12.20;41.74;96803.38;5034741;28;20178;-62
2022/04/11 10:31:16;;;;;;;2.00;1.90;;;;;;;12.49;40.25;96792.56;5016830;28;20236;-63
2022/04/11 10:33:42;;;;;;;2.30;2.03;;;;;;;12.71;40.44;96791.84;5029992;28;20207;-62
2022/04/11 10:36:33;;;;;;;2.27;1.80;;;;;;;13.19;39.91;96793.91;5034110;28;20191;-63
2022/04/11 10:39:14;;;;;;;2.17;1.97;;;;;;;12.91;39.13;96782.44;5034723;28;20310;-63
2022/04/11 10:41:55;;;;;;;2.50;2.03;;;;;;;12.93;39.62;96790.06;5029933;28;20252;-62
2022/04/11 10:44:35;;;;;;;1.77;1.67;;;;;;;13.07;39.60;96786.09;5034500;28;20236;-63
2022/04/11 10:47:12;;;;;;;2.77;1.73;;;;;;;13.07;39.41;96775.56;5034446;28;20179;-63
2022/04/11 10:49:50;;;;;;;2.20;2.00;;;;;;;13.33;39.48;96769.63;5034896;28;20181;-63
2022/04/11 10:52:33;;;;;;;3.57;1.77;;;;;;;13.34;39.48;96778.31;5034285;28;20186;-63
2022/04/11 10:55:15;;;;;;;2.53;1.80;;;;;;;13.20;38.53;96774.44;5034206;28;20536;-62
2022/04/11 10:57:43;;;;;;;4.10;2.27;;;;;;;13.14;39.66;96775.41;5033607;28;20620;-63
2022/04/11 11:00:26;;;;;;;3.83;2.30;;;;;;;13.00;40.00;96768.88;5033896;28;20622;-63
2022/04/11 11:02:52;;;;;;;3.30;2.20;;;;;;;12.25;40.12;96762.22;5033743;28;20276;-62
2022/04/11 11:05:41;;;;;;;4.83;2.30;;;;;;;12.25;40.31;96762.22;5034417;28;20187;-63
2022/04/11 11:08:09;;;;;;;2.63;1.90;;;;;;;12.35;40.24;96758.94;5019208;28;20466;-63
2022/04/11 11:10:52;;;;;;;3.30;2.17;;;;;;;12.51;40.16;96747.63;5034353;28;20194;-63
2022/04/11 11:13:30;;;;;;;4.43;1.90;;;;;;;12.67;41.04;96741.56;5033476;28;20194;-63
2022/04/11 11:16:11;;;;;;;3.00;2.20;;;;;;;12.93;39.28;96738.25;5033666;28;20529;-63
2022/04/11 11:18:46;;;;;;;2.93;2.07;;;;;;;12.18;40.06;96734.47;5034335;28;20217;-63
2022/04/11 11:21:13;;;;;;;4.23;2.20;;;;;;;12.23;40.59;96727.47;5034211;28;20184;-63
2022/04/11 11:23:38;;;;;;;2.23;1.97;;;;;;;12.55;39.12;96726.91;5033659;28;20191;-64
2022/04/11 11:26:12;;;;;;;1.90;1.80;;;;;;;12.66;39.46;96720.75;5034231;28;20186;-62
2022/04/11 11:28:41;;;;;;;1.93;1.80;;;;;;;13.11;38.72;96726.66;5033933;28;20636;-62
2022/04/11 11:31:07;;;;;;;2.57;2.37;;;;;;;13.24;38.06;96717.66;5032737;28;20179;-62
2022/04/11 11:33:32;;;;;;;2.07;1.70;;;;;;;13.64;38.25;96712.06;5033571;28;20241;-62
2022/04/11 11:35:58;;;;;;;2.47;2.27;;;;;;;13.66;36.84;96704.69;5014529;28;20218;-64
2022/04/11 11:38:32;;;;;;;3.47;1.90;;;;;;;13.62;36.78;96711.50;5033976;28;20186;-62